McGrew, Nebraska
Current Conditions -  °F | °C
As of 10:53 PM on Friday 19 Dec 2014 (Local Time) from KBFF Reporting Station
Clear Clear  
Wind Chill: 16°   Ceiling: Unl
Heat Index: 16°   Visibility: 10mi
Dew Point: 12°   Wind: 0mph
Humidity: 84%   Direction: NA
Pressure: 29.99"   Gusts: NA
Location:  41.75°N, 103.42°W
Report Text: KBFF 200553Z AUTO 00000KT 10SM CLR M09/M11 A2999 RMK AO2 SLP201 T10891111 11006 21094 56003
Loading
Personal Weather Stations






























Interactive Weather Map New forecast layout! Learn more

10-Day Weather Forecast

Advertisements
Track Severe Weather on mobile